createdAt,value
2023-02-06T00:00:47.606Z,97226.50
2023-02-06T00:03:14.236Z,97208.31
2023-02-06T00:05:40.603Z,97193.66
2023-02-06T00:08:07.209Z,97198.97
2023-02-06T00:10:33.818Z,97191.16
2023-02-06T00:13:00.298Z,97238.50
2023-02-06T00:15:26.648Z,97245.31
2023-02-06T00:17:53.064Z,97240.84
2023-02-06T00:20:19.477Z,97245.00
2023-02-06T00:22:45.841Z,97343.09
2023-02-06T00:25:12.413Z,97348.19
2023-02-06T00:27:38.753Z,97342.06
2023-02-06T00:30:05.646Z,97334.38
2023-02-06T00:32:32.082Z,97320.41
2023-02-06T00:34:58.429Z,97325.44
2023-02-06T00:37:24.772Z,97321.94
2023-02-06T00:39:51.347Z,97340.31
2023-02-06T00:42:17.690Z,97338.44
2023-02-06T00:44:44.032Z,97328.94
2023-02-06T00:47:10.600Z,97324.53
2023-02-06T00:49:36.943Z,97322.78
2023-02-06T00:52:03.364Z,97338.56
2023-02-06T00:54:29.763Z,97313.28
2023-02-06T00:56:56.114Z,97299.59
2023-02-06T00:59:22.460Z,97292.78
2023-02-06T01:01:49.050Z,97287.59
2023-02-06T01:04:15.395Z,97270.28
2023-02-06T01:06:41.749Z,97210.84
2023-02-06T01:09:08.348Z,97199.78
2023-02-06T01:11:35.006Z,97205.94
2023-02-06T01:14:01.592Z,97184.28
2023-02-06T01:16:28.195Z,97171.25
2023-02-06T01:18:54.688Z,97159.34
2023-02-06T01:21:22.836Z,97119.69
2023-02-06T01:23:50.035Z,97109.97
2023-02-06T01:26:19.175Z,97106.59
2023-02-06T01:28:46.379Z,97097.13
2023-02-06T01:31:21.484Z,97077.44
2023-02-06T01:33:48.273Z,97068.91
2023-02-06T01:36:15.098Z,97046.44
2023-02-06T01:38:41.610Z,97018.94
2023-02-06T01:41:08.368Z,97001.88
2023-02-06T01:43:37.672Z,96972.59
2023-02-06T01:46:04.455Z,96945.13
2023-02-06T01:48:50.176Z,96934.78
2023-02-06T01:51:21.662Z,96908.88
2023-02-06T01:53:50.297Z,96887.28
2023-02-06T01:56:19.412Z,96854.53
2023-02-06T01:58:48.245Z,96827.03
2023-02-06T02:01:14.608Z,96797.88
2023-02-06T02:03:42.224Z,96765.97
2023-02-06T02:06:12.685Z,96736.78
2023-02-06T02:08:41.230Z,96689.75
2023-02-06T02:11:09.010Z,96640.50
2023-02-06T02:13:36.526Z,96608.03
2023-02-06T02:16:13.984Z,96573.66
2023-02-06T02:18:52.375Z,96520.22
2023-02-06T02:21:39.007Z,96511.75
2023-02-06T02:24:31.822Z,96467.09
2023-02-06T02:27:19.369Z,96442.97
2023-02-06T02:30:27.972Z,96391.94
2023-02-06T02:33:27.746Z,96345.38
2023-02-06T02:36:13.033Z,96224.00
2023-02-06T02:38:50.696Z,95649.13
2023-02-06T02:41:21.476Z,95631.88
2023-02-06T02:43:57.793Z,95597.50
2023-02-06T02:46:41.033Z,95602.28
2023-02-06T02:49:10.408Z,95585.16
2023-02-06T02:51:36.842Z,95569.56
2023-02-06T02:54:03.359Z,95595.22
2023-02-06T02:56:29.855Z,95574.47
2023-02-06T02:59:10.945Z,95564.13
2023-02-06T03:01:43.475Z,95557.34
2023-02-06T03:04:23.026Z,95570.97
2023-02-06T03:07:08.237Z,95591.25
2023-02-06T03:09:53.094Z,95598.47
2023-02-06T03:12:45.208Z,95598.25
2023-02-06T03:15:26.987Z,95602.38
2023-02-06T03:18:08.214Z,95590.19
2023-02-06T03:20:34.597Z,95581.63
2023-02-06T03:23:00.942Z,95576.56
2023-02-06T03:25:36.322Z,95563.91
2023-02-06T03:28:03.686Z,95575.97
2023-02-06T03:30:30.149Z,95559.66
2023-02-06T03:33:00.562Z,95576.81
2023-02-06T03:35:29.852Z,95584.78
2023-02-06T03:37:56.208Z,95597.66
2023-02-06T03:40:22.768Z,95603.53
2023-02-06T03:42:51.802Z,95633.81
2023-02-06T03:45:23.100Z,95667.34
2023-02-06T03:47:49.468Z,95692.22
2023-02-06T03:50:15.824Z,95734.56
2023-02-06T03:52:44.905Z,95777.38
2023-02-06T03:55:14.020Z,95816.09
2023-02-06T03:57:41.881Z,95878.25
2023-02-06T04:00:08.962Z,95922.84
2023-02-06T04:02:35.386Z,95958.78
2023-02-06T04:05:01.801Z,95998.22
2023-02-06T04:07:29.850Z,96051.72
2023-02-06T04:09:56.255Z,96092.28
2023-02-06T04:12:22.835Z,96136.34
2023-02-06T04:14:51.317Z,96187.97
2023-02-06T04:17:31.508Z,96211.94
2023-02-06T04:20:04.984Z,96261.91
2023-02-06T04:22:31.358Z,96307.44
2023-02-06T04:24:57.734Z,96349.66
2023-02-06T04:27:24.407Z,96396.31
2023-02-06T04:29:50.796Z,96442.94
2023-02-06T04:32:17.118Z,96475.38
2023-02-06T04:34:43.524Z,96508.00
2023-02-06T04:37:12.286Z,96535.50
2023-02-06T04:39:38.918Z,96567.22
2023-02-06T04:42:06.220Z,96590.53
2023-02-06T04:44:33.641Z,96625.09
2023-02-06T04:47:00.649Z,96636.06
2023-02-06T04:49:27.046Z,96655.75
2023-02-06T04:51:53.382Z,96671.25
2023-02-06T04:54:19.709Z,96695.38
2023-02-06T04:56:46.433Z,96689.13
2023-02-06T04:59:12.994Z,96695.03
2023-02-06T05:01:39.488Z,96716.59
2023-02-06T05:04:06.060Z,96721.75
2023-02-06T05:06:32.532Z,96711.44
2023-02-06T05:08:59.319Z,96722.53
2023-02-06T05:11:25.730Z,96729.34
2023-02-06T05:13:52.068Z,96745.59
2023-02-06T05:16:18.689Z,96755.16
2023-02-06T05:18:45.352Z,96753.34
2023-02-06T05:21:12.453Z,96761.09
2023-02-06T05:23:38.893Z,96767.00
2023-02-06T05:26:05.675Z,96770.31
2023-02-06T05:28:34.925Z,96768.66
2023-02-06T05:31:01.897Z,96782.47
2023-02-06T05:33:28.640Z,96777.97
2023-02-06T05:35:55.228Z,96783.97
2023-02-06T05:38:21.576Z,96792.81
2023-02-06T05:40:50.768Z,96799.91
2023-02-06T05:43:17.152Z,96805.94
2023-02-06T05:45:43.488Z,96802.28
2023-02-06T05:48:10.057Z,96799.97
2023-02-06T05:50:36.501Z,96789.72
2023-02-06T05:53:02.921Z,96803.97
2023-02-06T05:55:29.572Z,96812.88
2023-02-06T05:57:55.916Z,96785.00
2023-02-06T06:00:22.534Z,96785.06
2023-02-06T06:02:49.082Z,96810.44
2023-02-06T06:05:15.502Z,96812.94
2023-02-06T06:07:41.851Z,96823.28
2023-02-06T06:10:08.800Z,96854.72
2023-02-06T06:12:35.153Z,96846.06
2023-02-06T06:15:01.562Z,96840.09
2023-02-06T06:17:28.774Z,96830.78
2023-02-06T06:19:55.139Z,96841.25
2023-02-06T06:22:21.476Z,96839.59
2023-02-06T06:24:48.079Z,96824.09
2023-02-06T06:27:14.458Z,96822.44
2023-02-06T06:29:40.880Z,96835.06
2023-02-06T06:32:07.263Z,96791.78
2023-02-06T06:34:33.686Z,96769.47
2023-02-06T06:37:00.044Z,96748.84
2023-02-06T06:39:26.408Z,96729.84
2023-02-06T06:41:52.812Z,96705.56
2023-02-06T06:44:19.173Z,96692.66
2023-02-06T06:46:45.571Z,96686.56
2023-02-06T06:49:11.933Z,96686.56
2023-02-06T06:51:38.269Z,96699.81
2023-02-06T06:54:04.893Z,96686.75
2023-02-06T06:56:31.250Z,96681.59
2023-02-06T06:58:57.620Z,96686.84
2023-02-06T07:01:24.250Z,96706.06
2023-02-06T07:03:50.612Z,96710.72
2023-02-06T07:06:17.088Z,96703.06
2023-02-06T07:08:43.588Z,96686.56
2023-02-06T07:11:10.878Z,96681.75
2023-02-06T07:13:37.513Z,96654.16
2023-02-06T07:16:04.360Z,96668.94
2023-02-06T07:18:30.769Z,96651.47
2023-02-06T07:20:57.120Z,96675.78
2023-02-06T07:23:23.722Z,96694.91
2023-02-06T07:25:50.166Z,96719.28
2023-02-06T07:28:16.603Z,96734.97
2023-02-06T07:30:43.344Z,96729.53
2023-02-06T07:33:09.770Z,96714.78
2023-02-06T07:35:36.534Z,96718.34
2023-02-06T07:38:03.252Z,96714.69
2023-02-06T07:40:44.073Z,96745.00
2023-02-06T07:43:11.277Z,96753.47
2023-02-06T07:45:38.035Z,96744.31
2023-02-06T07:48:05.249Z,96759.72
2023-02-06T07:50:32.103Z,96774.38
2023-02-06T07:52:58.613Z,96794.09
2023-02-06T07:55:24.982Z,96804.44
2023-02-06T07:57:51.601Z,96836.91
2023-02-06T08:00:18.239Z,96892.94
2023-02-06T08:02:44.583Z,96885.69
2023-02-06T08:05:11.161Z,96919.78
2023-02-06T08:07:37.509Z,96903.06
2023-02-06T08:10:04.193Z,96882.16
2023-02-06T08:12:30.624Z,96897.75
2023-02-06T08:14:56.995Z,96902.16
2023-02-06T08:17:23.345Z,96888.03
2023-02-06T08:19:49.896Z,96925.38
2023-02-06T08:22:16.262Z,96952.38
2023-02-06T08:24:42.666Z,96960.88
2023-02-06T08:27:09.293Z,96965.13
2023-02-06T08:29:42.403Z,96998.34
2023-02-06T08:32:09.678Z,96993.03
2023-02-06T08:34:36.220Z,96968.47
2023-02-06T08:37:02.586Z,96966.50
2023-02-06T08:39:29.062Z,96965.44
2023-02-06T08:41:55.695Z,97006.09
2023-02-06T08:44:22.049Z,97055.03
2023-02-06T08:46:49.715Z,97117.44
2023-02-06T08:49:20.572Z,97150.34
2023-02-06T08:51:47.459Z,97132.78
2023-02-06T08:54:15.726Z,97122.94
2023-02-06T08:56:42.497Z,97150.56
2023-02-06T08:59:10.643Z,97152.47
2023-02-06T09:01:37.372Z,97172.13
2023-02-06T09:04:10.500Z,97190.69
2023-02-06T09:06:39.753Z,97210.09
2023-02-06T09:09:06.441Z,97254.03
2023-02-06T09:11:33.126Z,97297.06
2023-02-06T09:14:00.723Z,97335.06
2023-02-06T09:16:27.659Z,97360.72
2023-02-06T09:18:54.995Z,97377.91
2023-02-06T09:21:23.538Z,97380.34
2023-02-06T09:23:54.694Z,97459.47
2023-02-06T09:26:23.360Z,97468.00
2023-02-06T09:28:57.731Z,97485.66
2023-02-06T09:31:25.452Z,97454.03
2023-02-06T09:33:52.019Z,97448.63
2023-02-06T09:36:19.364Z,97469.41
2023-02-06T09:38:47.381Z,97490.38
2023-02-06T09:41:33.937Z,97528.31
2023-02-06T09:44:28.144Z,97570.59
2023-02-06T09:47:02.232Z,97596.28
2023-02-06T09:49:53.896Z,97629.06
2023-02-06T09:52:31.807Z,97622.63
2023-02-06T09:55:20.957Z,97632.81
2023-02-06T09:58:10.959Z,97666.41
2023-02-06T10:01:13.336Z,97685.84
2023-02-06T10:03:46.053Z,97720.91
2023-02-06T10:06:22.431Z,97790.94
2023-02-06T10:08:57.105Z,97803.56
2023-02-06T10:11:34.777Z,97812.09
2023-02-06T10:14:04.318Z,97833.44
2023-02-06T10:16:44.337Z,97889.59
2023-02-06T10:19:16.857Z,97927.41
2023-02-06T10:21:50.215Z,97934.16
2023-02-06T10:24:32.778Z,97949.66
2023-02-06T10:27:01.860Z,97959.19
2023-02-06T10:29:30.169Z,97956.59
2023-02-06T10:32:39.143Z,97939.19
2023-02-06T10:35:07.589Z,97928.53
2023-02-06T10:37:55.446Z,97958.81
2023-02-06T10:40:38.789Z,97973.56
2023-02-06T10:43:42.815Z,98006.16
2023-02-06T10:46:12.328Z,98051.75
2023-02-06T10:48:58.276Z,98070.56
2023-02-06T10:51:44.825Z,98123.19
2023-02-06T10:54:23.545Z,98180.47
2023-02-06T10:56:50.349Z,98205.06
2023-02-06T10:59:29.232Z,98315.41
2023-02-06T11:02:02.487Z,98384.03
2023-02-06T11:05:08.831Z,98447.75
2023-02-06T11:07:40.010Z,98527.84
2023-02-06T11:10:07.026Z,98587.09
2023-02-06T11:12:38.529Z,98598.13
2023-02-06T11:15:35.724Z,98707.66
2023-02-06T11:18:03.807Z,98757.69
2023-02-06T11:20:33.204Z,98811.94
2023-02-06T11:23:17.948Z,98850.56
2023-02-06T11:25:45.241Z,98884.91
2023-02-06T11:28:19.187Z,98967.56
2023-02-06T11:31:03.207Z,99026.22
2023-02-06T11:33:34.948Z,99030.56
2023-02-06T11:36:01.341Z,99077.06
2023-02-06T11:38:29.409Z,99077.00
2023-02-06T11:41:06.654Z,99093.19
2023-02-06T11:43:42.070Z,99081.06
2023-02-06T11:46:12.011Z,99130.47
2023-02-06T11:48:56.864Z,99126.06
2023-02-06T11:51:23.713Z,99187.25
2023-02-06T11:54:01.040Z,99253.59
2023-02-06T11:56:28.174Z,99331.16
2023-02-06T11:59:07.039Z,99362.97
2023-02-06T12:01:46.678Z,99374.16
2023-02-06T12:04:34.914Z,99411.28
2023-02-06T12:07:06.749Z,99387.06
2023-02-06T12:09:33.410Z,99412.19
2023-02-06T12:12:18.468Z,99436.38
2023-02-06T12:14:52.798Z,99450.97
2023-02-06T12:17:28.814Z,99478.34
2023-02-06T12:19:59.877Z,99546.47
2023-02-06T12:22:26.806Z,99625.88
2023-02-06T12:24:55.512Z,99668.97
2023-02-06T12:27:28.651Z,99700.84
2023-02-06T12:30:03.345Z,99748.34
2023-02-06T12:32:33.040Z,99774.25
2023-02-06T12:35:33.766Z,99724.06
2023-02-06T12:38:04.942Z,99744.78
2023-02-06T12:40:43.031Z,99772.38
2023-02-06T12:43:11.550Z,99854.50
2023-02-06T12:45:46.666Z,99804.41
2023-02-06T12:48:30.206Z,99749.81
2023-02-06T12:51:08.168Z,99786.06
2023-02-06T12:53:40.652Z,99832.69
2023-02-06T12:56:30.985Z,99881.94
2023-02-06T12:59:03.053Z,99889.88
2023-02-06T13:01:45.214Z,99863.13
2023-02-06T13:04:17.922Z,99848.47
2023-02-06T13:06:50.631Z,99845.84
2023-02-06T13:09:26.161Z,99831.91
2023-02-06T13:11:52.775Z,99828.41
2023-02-06T13:14:26.359Z,99854.25
2023-02-06T13:16:58.166Z,99866.31
2023-02-06T13:19:25.862Z,99891.31
2023-02-06T13:22:13.756Z,99904.25
2023-02-06T13:24:40.966Z,99925.78
2023-02-06T13:27:07.293Z,99983.69
2023-02-06T13:29:34.389Z,100025.16
2023-02-06T13:32:18.428Z,100057.94
2023-02-06T13:34:45.040Z,100089.06
2023-02-06T13:37:30.125Z,100164.25
2023-02-06T13:40:41.168Z,100182.44
2023-02-06T13:43:07.534Z,100202.22
2023-02-06T13:45:52.302Z,100233.31
2023-02-06T13:48:56.284Z,100228.16
2023-02-06T13:51:34.929Z,100186.56
2023-02-06T13:54:05.269Z,100214.25
2023-02-06T13:56:40.672Z,100240.13
2023-02-06T13:59:17.802Z,100214.22
2023-02-06T14:01:44.515Z,100195.25
2023-02-06T14:04:18.399Z,100212.53
2023-02-06T14:07:15.642Z,100223.75
2023-02-06T14:09:57.966Z,100241.06
2023-02-06T14:12:44.674Z,100223.84
2023-02-06T14:15:36.537Z,100161.63
2023-02-06T14:18:35.823Z,100077.66
2023-02-06T14:21:17.107Z,100097.44
2023-02-06T14:23:59.080Z,100201.94
2023-02-06T14:26:37.648Z,100265.94
2023-02-06T14:29:14.145Z,100241.75
2023-02-06T14:32:01.972Z,100292.81
2023-02-06T14:34:40.995Z,100295.44
2023-02-06T14:37:50.188Z,100323.13
2023-02-06T14:40:20.626Z,100343.88
2023-02-06T14:42:47.025Z,100381.91
2023-02-06T14:45:38.583Z,100361.22
2023-02-06T14:48:22.853Z,100333.59
2023-02-06T14:50:51.155Z,100276.63
2023-02-06T14:53:36.926Z,100237.78
2023-02-06T14:56:15.111Z,100255.06
2023-02-06T14:58:46.009Z,100266.31
2023-02-06T15:01:18.428Z,100268.91
2023-02-06T15:03:45.468Z,100264.56
2023-02-06T15:06:25.620Z,100266.31
2023-02-06T15:08:51.981Z,100292.19
2023-02-06T15:11:24.835Z,100295.63
2023-02-06T15:13:53.220Z,100278.34
2023-02-06T15:16:19.629Z,100271.44
2023-02-06T15:18:46.021Z,100299.91
2023-02-06T15:21:16.354Z,100306.81
2023-02-06T15:23:55.815Z,100315.47
2023-02-06T15:26:44.887Z,100331.88
2023-02-06T15:29:22.981Z,100314.63
2023-02-06T15:31:50.515Z,100337.09
2023-02-06T15:34:17.971Z,100323.28
2023-02-06T15:36:44.442Z,100344.84
2023-02-06T15:39:11.718Z,100341.41
2023-02-06T15:41:38.474Z,100304.31
2023-02-06T15:44:12.949Z,100309.50
2023-02-06T15:46:39.403Z,100280.19
2023-02-06T15:49:06.851Z,100241.31
2023-02-06T15:51:41.017Z,100238.75
2023-02-06T15:54:16.733Z,100218.09
2023-02-06T15:56:43.362Z,100181.84
2023-02-06T15:59:22.955Z,100139.59
2023-02-06T16:01:49.476Z,100100.78
2023-02-06T16:04:31.727Z,100062.03
2023-02-06T16:07:07.614Z,100023.19
2023-02-06T16:09:41.912Z,99982.72
2023-02-06T16:12:08.744Z,99954.31
2023-02-06T16:14:39.843Z,99918.97
2023-02-06T16:17:12.717Z,99887.97
2023-02-06T16:19:44.921Z,99865.53
2023-02-06T16:22:22.828Z,99851.78
2023-02-06T16:24:49.765Z,99833.75
2023-02-06T16:27:21.393Z,99834.56
2023-02-06T16:29:55.978Z,99931.16
2023-02-06T16:32:28.694Z,99949.25
2023-02-06T16:34:55.466Z,100019.94
2023-02-06T16:37:27.339Z,100055.28
2023-02-06T16:39:53.876Z,100051.00
2023-02-06T16:42:22.897Z,100047.53
2023-02-06T16:44:51.479Z,100080.25
2023-02-06T16:47:19.220Z,100085.41
2023-02-06T16:49:48.184Z,100051.81
2023-02-06T16:52:23.723Z,100048.34
2023-02-06T16:54:50.273Z,100069.91
2023-02-06T16:57:27.317Z,100072.50
2023-02-06T16:59:53.731Z,100078.53
2023-02-06T17:02:20.212Z,100078.53
2023-02-06T17:04:47.264Z,100121.59
2023-02-06T17:07:16.308Z,100149.22
2023-02-06T17:09:42.816Z,100165.59
2023-02-06T17:12:14.492Z,100154.38
2023-02-06T17:14:41.028Z,100175.91
2023-02-06T17:17:19.178Z,100178.47
2023-02-06T17:19:45.741Z,100151.81
2023-02-06T17:22:12.243Z,100133.69
2023-02-06T17:24:38.878Z,100104.44
2023-02-06T17:27:06.764Z,100096.69
2023-02-06T17:29:33.335Z,100069.97
2023-02-06T17:32:00.469Z,100068.25
2023-02-06T17:34:27.402Z,100054.47
2023-02-06T17:36:54.255Z,100026.09
2023-02-06T17:39:21.089Z,99998.53
2023-02-06T17:41:48.464Z,99969.28
2023-02-06T17:44:16.854Z,99934.03
2023-02-06T17:46:43.593Z,99901.34
2023-02-06T17:49:10.071Z,99894.47
2023-02-06T17:51:36.424Z,99870.38
2023-02-06T17:54:04.542Z,99832.56
2023-02-06T17:56:32.214Z,99798.19
2023-02-06T17:58:58.593Z,99779.28
2023-02-06T18:01:25.364Z,99751.84
2023-02-06T18:03:52.034Z,99731.19
2023-02-06T18:06:18.722Z,99718.31
2023-02-06T18:08:45.421Z,99731.22
2023-02-06T18:11:17.963Z,99729.50
2023-02-06T18:13:45.161Z,99734.63
2023-02-06T18:16:23.142Z,99700.28
2023-02-06T18:18:49.631Z,99683.13
2023-02-06T18:21:16.516Z,99673.69
2023-02-06T18:23:42.907Z,99656.50
2023-02-06T18:26:09.453Z,99615.28
2023-02-06T18:28:36.238Z,99574.09
2023-02-06T18:31:03.171Z,99554.38
2023-02-06T18:33:30.147Z,99521.75
2023-02-06T18:35:56.515Z,99492.56
2023-02-06T18:38:23.150Z,99455.63
2023-02-06T18:40:50.157Z,99405.84
2023-02-06T18:43:16.515Z,99405.84
2023-02-06T18:45:43.190Z,99398.97
2023-02-06T18:48:11.756Z,99400.69
2023-02-06T18:50:39.749Z,99405.00
2023-02-06T18:53:06.349Z,99399.88
2023-02-06T18:55:34.891Z,99387.84
2023-02-06T18:58:01.894Z,99356.13
2023-02-06T19:00:28.623Z,99346.69
2023-02-06T19:02:54.994Z,99341.53
2023-02-06T19:05:21.398Z,99333.00
2023-02-06T19:07:49.531Z,99344.16
2023-02-06T19:10:16.793Z,99333.03
2023-02-06T19:12:43.183Z,99330.47
2023-02-06T19:15:10.093Z,99315.03
2023-02-06T19:17:36.524Z,99308.16
2023-02-06T19:20:03.671Z,99297.03
2023-02-06T19:22:30.105Z,99302.19
2023-02-06T19:24:57.274Z,99300.50
2023-02-06T19:27:23.695Z,99292.81
2023-02-06T19:29:50.312Z,99285.97
2023-02-06T19:32:16.717Z,99273.06
2023-02-06T19:34:45.059Z,99268.78
2023-02-06T19:37:12.389Z,99261.94
2023-02-06T19:39:40.305Z,99243.91
2023-02-06T19:42:09.397Z,99240.47
2023-02-06T19:44:36.240Z,99250.81
2023-02-06T19:47:03.060Z,99243.97
2023-02-06T19:49:29.622Z,99246.53
2023-02-06T19:51:56.074Z,99245.72
2023-02-06T19:54:22.416Z,99242.28
2023-02-06T19:56:48.869Z,99242.31
2023-02-06T19:59:20.428Z,99230.31
2023-02-06T20:01:51.173Z,99207.13
2023-02-06T20:04:18.299Z,99203.72
2023-02-06T20:06:44.917Z,99156.59
2023-02-06T20:09:12.603Z,99130.88
2023-02-06T20:11:39.030Z,99084.53
2023-02-06T20:14:05.950Z,99094.00
2023-02-06T20:16:33.388Z,99114.59
2023-02-06T20:19:25.526Z,99142.06
2023-02-06T20:21:53.675Z,99161.81
2023-02-06T20:24:22.034Z,99170.38
2023-02-06T20:26:50.072Z,99187.53
2023-02-06T20:29:21.907Z,99211.56
2023-02-06T20:31:49.222Z,99216.72
2023-02-06T20:34:16.033Z,99218.41
2023-02-06T20:36:42.401Z,99201.28
2023-02-06T20:39:10.523Z,99188.44
2023-02-06T20:41:36.885Z,99178.97
2023-02-06T20:44:03.686Z,99168.69
2023-02-06T20:46:30.779Z,99181.53
2023-02-06T20:49:01.591Z,99199.56
2023-02-06T20:51:28.563Z,99218.44
2023-02-06T20:53:55.089Z,99232.19
2023-02-06T20:56:21.906Z,99239.06
2023-02-06T20:58:50.124Z,99246.75
2023-02-06T21:01:23.495Z,99230.50
2023-02-06T21:03:50.715Z,99255.34
2023-02-06T21:06:17.292Z,99252.78
2023-02-06T21:08:45.556Z,99209.94
2023-02-06T21:11:12.053Z,99113.16
2023-02-06T21:13:39.563Z,98991.47
2023-02-06T21:16:06.454Z,98915.19
2023-02-06T21:18:32.942Z,98844.97
2023-02-06T21:21:09.537Z,98812.47
2023-02-06T21:23:39.647Z,98766.97
2023-02-06T21:26:06.511Z,98719.75
2023-02-06T21:28:33.692Z,98668.25
2023-02-06T21:31:13.187Z,98635.69
2023-02-06T21:33:39.772Z,98594.44
2023-02-06T21:36:07.803Z,98548.00
2023-02-06T21:38:34.916Z,98499.81
2023-02-06T21:41:08.418Z,98479.09
2023-02-06T21:43:34.910Z,98472.22
2023-02-06T21:46:01.741Z,98481.47
2023-02-06T21:48:28.236Z,98495.91
2023-02-06T21:50:54.619Z,98511.31
2023-02-06T21:53:21.370Z,98534.34
2023-02-06T21:55:47.733Z,98553.16
2023-02-06T21:58:14.798Z,98584.97
2023-02-06T22:00:45.331Z,98604.56
2023-02-06T22:03:12.313Z,98637.97
2023-02-06T22:05:38.942Z,98669.69
2023-02-06T22:08:05.926Z,98655.84
2023-02-06T22:10:32.354Z,98684.13
2023-02-06T22:12:58.743Z,98697.84
2023-02-06T22:15:25.157Z,98708.09
2023-02-06T22:17:51.569Z,98717.53
2023-02-06T22:20:18.028Z,98739.78
2023-02-06T22:22:44.605Z,98770.78
2023-02-06T22:25:11.754Z,98783.66
2023-02-06T22:27:38.337Z,98801.69
2023-02-06T22:30:05.829Z,98801.72
2023-02-06T22:32:32.225Z,98808.63
2023-02-06T22:34:59.888Z,98812.97
2023-02-06T22:37:26.408Z,98823.22
2023-02-06T22:39:56.087Z,98852.41
2023-02-06T22:42:22.786Z,98884.22
2023-02-06T22:44:49.693Z,98875.66
2023-02-06T22:47:16.236Z,98884.19
2023-02-06T22:49:42.774Z,98897.09
2023-02-06T22:52:29.325Z,98899.66
2023-02-06T22:54:55.941Z,98924.56
2023-02-06T22:57:23.660Z,98939.16
2023-02-06T22:59:50.404Z,98960.66
2023-02-06T23:02:17.027Z,98976.09
2023-02-06T23:04:43.483Z,99006.13
2023-02-06T23:07:09.860Z,99039.59
2023-02-06T23:09:37.507Z,99080.81
2023-02-06T23:12:04.204Z,99111.75
2023-02-06T23:14:31.444Z,99138.34
2023-02-06T23:16:59.359Z,99170.13
2023-02-06T23:19:25.738Z,99187.31
2023-02-06T23:21:52.174Z,99197.66
2023-02-06T23:24:18.653Z,99195.97
2023-02-06T23:26:47.211Z,99199.41
2023-02-06T23:29:15.791Z,99232.03
2023-02-06T23:31:42.281Z,99259.47
2023-02-06T23:34:08.906Z,99237.16
2023-02-06T23:36:35.248Z,99212.31
2023-02-06T23:39:02.183Z,99186.59
2023-02-06T23:41:28.887Z,99141.94
2023-02-06T23:44:00.818Z,99120.50
2023-02-06T23:46:28.301Z,99103.28
2023-02-06T23:48:54.753Z,99077.56
2023-02-06T23:51:21.571Z,99043.31
2023-02-06T23:53:48.308Z,98997.81
2023-02-06T23:56:25.958Z,98960.00
2023-02-06T23:58:53.258Z,98939.34
